Time;durP1;ratioP1;P1;durP2;ratioP2;P2;SDS_P1;SDS_P2;PMS_P1;PMS_P2;Temp;Humidity;BMP_temperature;BMP_pressure;BME280_temperature;BME280_humidity;BME280_pressure;Samples;Min_cycle;Max_cycle;Signal;HPM_P1;HPM_P2
2023/09/24 00:00:57;;;;;;;16.95;11.90;;;17.40;99.90;;;;;;5052289;28;20104;-87
2023/09/24 00:03:24;;;;;;;16.08;12.52;;;17.40;99.90;;;;;;5051290;28;20108;-88
2023/09/24 00:05:53;;;;;;;20.13;11.38;;;17.40;99.90;;;;;;5052812;28;20029;-87
2023/09/24 00:08:19;;;;;;;14.82;10.77;;;17.30;99.90;;;;;;5051205;28;20032;-87
2023/09/24 00:10:50;;;;;;;11.10;9.95;;;17.40;99.90;;;;;;5051313;28;20395;-87
2023/09/24 00:13:17;;;;;;;10.98;9.85;;;17.40;99.90;;;;;;5050969;28;20029;-89
2023/09/24 00:15:42;;;;;;;14.38;11.15;;;17.40;99.90;;;;;;5051221;28;20047;-87
2023/09/24 00:18:08;;;;;;;10.88;9.77;;;17.40;99.90;;;;;;5051016;28;20041;-86
2023/09/24 00:20:34;;;;;;;16.00;12.20;;;17.40;99.90;;;;;;5052325;28;20021;-87
2023/09/24 00:22:59;;;;;;;15.85;13.35;;;17.40;99.90;;;;;;5050772;28;20032;-87
2023/09/24 00:25:26;;;;;;;14.95;13.35;;;17.40;99.90;;;;;;5050716;28;20514;-86
2023/09/24 00:27:52;;;;;;;15.70;12.27;;;17.40;99.90;;;;;;5051744;28;20494;-88
2023/09/24 00:30:18;;;;;;;14.40;12.70;;;17.40;99.90;;;;;;5050549;28;20468;-86
2023/09/24 00:32:43;;;;;;;26.92;14.63;;;17.40;99.90;;;;;;5051584;28;20029;-86
2023/09/24 00:35:10;;;;;;;15.40;12.77;;;17.40;99.90;;;;;;5050485;28;20041;-86
2023/09/24 00:37:35;;;;;;;14.35;10.60;;;17.40;99.90;;;;;;5050621;28;20112;-89
2023/09/24 00:40:03;;;;;;;15.15;10.60;;;17.40;99.90;;;;;;5050833;28;20124;-87
2023/09/24 00:42:29;;;;;;;13.05;11.23;;;17.40;99.90;;;;;;5052111;28;20028;-87
2023/09/24 00:44:55;;;;;;;18.55;12.25;;;17.40;99.90;;;;;;5052259;28;20025;-90
2023/09/24 00:47:22;;;;;;;13.43;10.50;;;17.40;99.90;;;;;;5051265;28;20465;-89
2023/09/24 00:49:48;;;;;;;11.10;8.52;;;17.40;99.90;;;;;;5050847;28;20032;-88
2023/09/24 00:52:14;;;;;;;15.98;11.48;;;17.40;99.90;;;;;;5051008;28;20033;-88
2023/09/24 00:54:41;;;;;;;16.35;11.48;;;17.40;99.90;;;;;;5050743;28;20033;-89
2023/09/24 00:57:07;;;;;;;15.77;9.95;;;17.40;99.90;;;;;;5052076;28;20655;-88
2023/09/24 00:59:33;;;;;;;13.05;9.73;;;17.40;99.90;;;;;;5051540;28;20037;-88
2023/09/24 01:01:59;;;;;;;11.30;9.55;;;17.30;99.90;;;;;;5051257;28;20094;-90
2023/09/24 01:04:25;;;;;;;10.68;8.93;;;17.40;99.90;;;;;;5051632;28;20443;-90
2023/09/24 01:06:50;;;;;;;11.82;10.60;;;17.30;99.90;;;;;;5051106;28;20565;-90
2023/09/24 01:09:19;;;;;;;15.38;10.43;;;17.30;99.90;;;;;;5051971;28;20021;-85
2023/09/24 01:11:47;;;;;;;16.20;8.90;;;17.30;99.90;;;;;;5051083;28;20486;-86
2023/09/24 01:14:13;;;;;;;15.80;10.40;;;17.40;99.90;;;;;;5050912;28;20413;-87
2023/09/24 01:16:38;;;;;;;20.42;11.27;;;17.30;99.90;;;;;;5051171;28;20072;-88
2023/09/24 01:19:05;;;;;;;15.25;10.80;;;17.30;99.90;;;;;;5050192;28;20477;-88
2023/09/24 01:21:31;;;;;;;13.38;10.65;;;17.40;99.90;;;;;;5050402;28;20021;-85
2023/09/24 01:23:59;;;;;;;11.52;9.52;;;17.30;99.90;;;;;;5051390;28;20029;-87
2023/09/24 01:26:25;;;;;;;14.38;10.90;;;17.40;99.90;;;;;;5051704;28;20059;-85
2023/09/24 01:28:51;;;;;;;15.05;11.55;;;17.30;99.90;;;;;;5051316;28;20434;-87
2023/09/24 01:31:21;;;;;;;16.55;12.95;;;17.30;99.90;;;;;;5050319;28;20110;-84
2023/09/24 01:33:50;;;;;;;14.98;13.38;;;17.30;99.90;;;;;;5050238;28;20102;-87
2023/09/24 01:36:17;;;;;;;14.88;12.73;;;17.30;99.90;;;;;;5050350;28;20493;-86
2023/09/24 01:38:43;;;;;;;18.85;12.07;;;17.20;99.90;;;;;;5049702;28;20528;-86
2023/09/24 01:41:12;;;;;;;14.10;12.55;;;17.20;99.90;;;;;;5033421;28;20034;-87
2023/09/24 01:43:42;;;;;;;16.52;14.00;;;17.20;99.90;;;;;;5029323;28;20069;-86
2023/09/24 01:46:08;;;;;;;25.23;14.07;;;17.20;99.90;;;;;;5030445;28;20338;-86
2023/09/24 01:48:34;;;;;;;13.95;12.10;;;17.20;99.90;;;;;;5030775;28;20296;-87
2023/09/24 01:51:10;;;;;;;14.10;10.73;;;17.20;99.90;;;;;;5029322;28;20021;-88
2023/09/24 01:53:38;;;;;;;16.48;13.05;;;17.10;99.90;;;;;;5030604;28;20104;-86
2023/09/24 01:56:06;;;;;;;18.88;12.80;;;17.10;99.90;;;;;;5029610;28;20026;-88
2023/09/24 01:58:32;;;;;;;13.65;11.75;;;17.10;99.90;;;;;;5030624;28;20041;-87
2023/09/24 02:00:58;;;;;;;13.75;10.82;;;17.20;99.90;;;;;;5029335;28;20031;-87
2023/09/24 02:03:24;;;;;;;13.70;11.25;;;17.10;99.90;;;;;;5030285;28;20100;-87
2023/09/24 02:05:49;;;;;;;14.48;10.13;;;17.10;99.90;;;;;;5030346;28;20032;-88
2023/09/24 02:08:15;;;;;;;10.50;9.13;;;17.20;99.90;;;;;;5029845;28;20083;-88
2023/09/24 02:10:41;;;;;;;11.48;8.70;;;17.20;99.90;;;;;;5047940;28;20040;-86
2023/09/24 02:13:12;;;;;;;12.45;9.20;;;17.10;99.90;;;;;;5030079;28;20497;-85
2023/09/24 02:15:39;;;;;;;12.00;8.02;;;17.20;99.90;;;;;;5029112;28;20433;-86
2023/09/24 02:18:05;;;;;;;9.65;7.30;;;17.20;99.90;;;;;;5030763;28;20120;-85
2023/09/24 02:22:59;;;;;;;8.68;7.78;;;17.20;99.90;;;;;;5030166;28;20029;-87
2023/09/24 02:25:25;;;;;;;9.45;7.47;;;17.30;99.90;;;;;;5028507;28;20502;-88
2023/09/24 02:27:52;;;;;;;14.40;8.27;;;17.20;99.90;;;;;;5030082;28;20482;-88
2023/09/24 02:30:19;;;;;;;10.07;6.60;;;17.30;99.90;;;;;;5030179;28;20068;-87
2023/09/24 02:32:45;;;;;;;9.50;5.75;;;17.20;99.90;;;;;;5030431;28;20087;-86
2023/09/24 02:35:13;;;;;;;9.65;5.40;;;17.30;99.90;;;;;;5028682;28;20037;-86
2023/09/24 02:37:44;;;;;;;6.53;4.90;;;17.20;99.90;;;;;;5029333;28;20033;-88
2023/09/24 02:40:15;;;;;;;7.82;5.63;;;17.20;99.90;;;;;;5045257;28;20116;-88
2023/09/24 02:42:42;;;;;;;7.50;4.97;;;17.20;99.90;;;;;;5044983;28;20505;-86
2023/09/24 02:45:09;;;;;;;6.38;4.43;;;17.20;99.90;;;;;;5029208;28;20413;-86
2023/09/24 02:47:36;;;;;;;6.55;3.95;;;17.20;99.90;;;;;;5029815;28;20033;-87
2023/09/24 02:50:07;;;;;;;6.53;3.97;;;17.20;99.90;;;;;;5029617;28;20018;-85
2023/09/24 02:52:33;;;;;;;7.65;4.40;;;17.20;99.90;;;;;;5029889;28;20494;-86
2023/09/24 02:54:59;;;;;;;8.38;3.78;;;17.20;99.90;;;;;;5029620;28;20029;-86
2023/09/24 02:57:26;;;;;;;5.95;3.75;;;17.20;99.90;;;;;;5045047;28;20037;-85
2023/09/24 02:59:52;;;;;;;6.03;3.45;;;17.20;99.90;;;;;;5029477;28;20032;-87
2023/09/24 03:02:17;;;;;;;8.90;4.38;;;17.20;99.90;;;;;;5029022;28;20033;-88
2023/09/24 03:04:43;;;;;;;12.32;4.80;;;17.20;99.90;;;;;;5029590;28;20159;-86
2023/09/24 03:07:09;;;;;;;4.95;2.65;;;17.20;99.90;;;;;;5044609;28;20021;-86
2023/09/24 03:09:35;;;;;;;6.60;4.45;;;17.20;99.90;;;;;;5028037;28;20029;-86
2023/09/24 03:12:01;;;;;;;5.85;4.03;;;17.20;99.90;;;;;;5029743;28;20107;-88
2023/09/24 03:14:26;;;;;;;10.60;4.25;;;17.20;99.90;;;;;;5029889;28;20022;-84
2023/09/24 03:16:52;;;;;;;3.90;3.30;;;17.20;99.90;;;;;;5029149;28;20567;-86
2023/09/24 03:19:18;;;;;;;8.73;3.97;;;17.20;99.90;;;;;;5029282;28;20033;-87
2023/09/24 03:21:44;;;;;;;7.30;4.93;;;17.20;99.90;;;;;;5029448;28;20521;-88
2023/09/24 03:24:14;;;;;;;5.70;3.55;;;17.20;99.90;;;;;;5029142;28;20057;-86
2023/09/24 03:26:41;;;;;;;5.97;3.95;;;17.20;99.90;;;;;;5044704;28;20490;-89
2023/09/24 03:29:07;;;;;;;10.20;4.13;;;17.20;99.90;;;;;;5028352;28;20026;-88
2023/09/24 03:31:33;;;;;;;8.10;4.82;;;17.20;99.90;;;;;;5044528;28;20033;-88
2023/09/24 03:33:59;;;;;;;6.68;3.88;;;17.20;99.90;;;;;;5029243;28;20028;-87
2023/09/24 03:36:25;;;;;;;5.45;3.97;;;17.20;99.90;;;;;;5029612;28;20406;-88
2023/09/24 03:38:51;;;;;;;9.68;4.38;;;17.20;99.90;;;;;;5031429;28;20042;-88
2023/09/24 03:41:16;;;;;;;7.15;4.85;;;17.20;99.90;;;;;;5032509;28;20026;-88
2023/09/24 03:43:42;;;;;;;5.40;3.65;;;17.20;99.90;;;;;;5033105;28;20030;-88
2023/09/24 03:46:09;;;;;;;3.67;3.10;;;17.20;99.90;;;;;;5032394;28;20029;-86
2023/09/24 03:48:35;;;;;;;3.33;3.03;;;17.20;99.90;;;;;;5033019;28;20043;-88
2023/09/24 03:51:01;;;;;;;5.22;3.75;;;17.20;99.90;;;;;;5032509;28;20021;-87
2023/09/24 03:53:27;;;;;;;4.30;3.00;;;17.20;99.90;;;;;;5031399;28;20064;-86
2023/09/24 03:55:53;;;;;;;6.60;3.10;;;17.20;99.90;;;;;;5031391;28;20118;-88
2023/09/24 03:58:19;;;;;;;3.83;2.40;;;17.20;99.90;;;;;;5032782;28;20025;-86
2023/09/24 04:00:44;;;;;;;4.07;2.63;;;17.20;99.90;;;;;;5032455;28;20520;-87
2023/09/24 04:03:12;;;;;;;7.40;2.20;;;17.20;99.90;;;;;;5047987;28;20109;-88
2023/09/24 04:05:37;;;;;;;7.85;2.97;;;17.30;99.90;;;;;;5048102;28;20462;-86
2023/09/24 04:08:03;;;;;;;7.65;2.97;;;17.30;99.90;;;;;;5032279;28;20104;-88
2023/09/24 04:10:30;;;;;;;8.32;3.13;;;17.30;99.90;;;;;;5032051;28;20043;-88
2023/09/24 04:12:57;;;;;;;5.53;2.38;;;17.30;99.90;;;;;;5032370;28;20025;-86
2023/09/24 04:15:29;;;;;;;4.63;2.28;;;17.30;99.90;;;;;;5032326;28;20030;-86
2023/09/24 04:17:59;;;;;;;7.85;1.23;;;17.20;99.90;;;;;;5030984;28;20045;-88
2023/09/24 04:20:29;;;;;;;3.83;1.80;;;17.20;99.90;;;;;;5032135;28;20014;-87
2023/09/24 04:22:55;;;;;;;4.07;1.77;;;17.20;99.90;;;;;;5032081;28;20084;-87
2023/09/24 04:25:22;;;;;;;4.25;1.15;;;17.10;99.90;;;;;;5030737;28;20033;-87
2023/09/24 04:27:48;;;;;;;2.33;1.13;;;17.00;99.90;;;;;;5031396;28;20030;-88
2023/09/24 04:30:17;;;;;;;3.42;1.00;;;16.90;99.90;;;;;;5030824;28;20048;-89
2023/09/24 04:32:53;;;;;;;5.65;1.20;;;16.80;99.90;;;;;;5031234;28;20116;-89
2023/09/24 04:35:19;;;;;;;6.45;1.20;;;16.70;99.90;;;;;;5032285;28;20022;-86
2023/09/24 04:37:48;;;;;;;10.52;1.80;;;16.60;99.90;;;;;;5031841;28;20041;-88
2023/09/24 04:40:14;;;;;;;5.53;1.45;;;16.50;99.90;;;;;;5030623;28;20037;-86
2023/09/24 04:42:44;;;;;;;6.05;1.00;;;16.50;99.90;;;;;;5031567;28;20025;-87
2023/09/24 04:45:11;;;;;;;4.80;0.93;;;16.40;99.90;;;;;;5046713;28;20033;-88
2023/09/24 04:47:40;;;;;;;4.72;2.20;;;16.50;99.90;;;;;;5029892;28;20179;-86
2023/09/24 04:50:08;;;;;;;2.45;0.85;;;16.40;99.90;;;;;;5030315;28;20136;-87
2023/09/24 04:52:34;;;;;;;3.83;0.88;;;16.40;99.90;;;;;;5029910;28;20026;-89
2023/09/24 04:55:01;;;;;;;7.15;0.80;;;16.40;99.90;;;;;;5031267;28;20056;-87
2023/09/24 04:57:26;;;;;;;5.10;1.10;;;16.40;99.90;;;;;;5030466;28;20083;-87
2023/09/24 04:59:53;;;;;;;3.10;0.63;;;16.40;99.90;;;;;;5031318;28;20108;-89
2023/09/24 05:02:23;;;;;;;2.50;0.70;;;16.40;99.90;;;;;;5031306;28;20021;-89
2023/09/24 05:04:49;;;;;;;5.40;0.80;;;16.50;99.90;;;;;;5030709;28;20452;-89
2023/09/24 05:07:15;;;;;;;4.25;0.90;;;16.50;99.90;;;;;;5029680;28;20029;-88
2023/09/24 05:09:41;;;;;;;2.28;0.80;;;16.50;99.90;;;;;;5030689;28;20056;-87
2023/09/24 05:12:07;;;;;;;1.83;0.60;;;16.60;99.90;;;;;;5030212;28;20613;-87
2023/09/24 05:14:33;;;;;;;2.58;0.82;;;16.60;99.90;;;;;;5031626;28;20029;-89
2023/09/24 05:17:00;;;;;;;5.47;0.82;;;16.50;99.90;;;;;;5030822;28;20518;-87
2023/09/24 05:19:26;;;;;;;1.65;0.73;;;16.60;99.90;;;;;;5031217;28;20045;-88
2023/09/24 05:21:51;;;;;;;4.72;1.00;;;16.60;99.90;;;;;;5031054;28;20029;-86
2023/09/24 05:24:17;;;;;;;3.00;0.82;;;16.60;99.90;;;;;;5030735;28;20037;-86
2023/09/24 05:26:44;;;;;;;2.15;0.80;;;16.60;99.90;;;;;;5029897;28;20494;-87
2023/09/24 05:29:10;;;;;;;4.82;0.90;;;16.60;99.90;;;;;;5030698;28;20029;-89
2023/09/24 05:31:36;;;;;;;1.27;0.70;;;16.60;99.90;;;;;;5030687;28;20028;-87
2023/09/24 05:34:04;;;;;;;2.33;0.80;;;16.60;99.90;;;;;;5029391;28;20115;-87
2023/09/24 05:36:30;;;;;;;6.07;0.93;;;16.60;99.90;;;;;;5029822;28;20504;-87
2023/09/24 05:38:57;;;;;;;4.13;1.00;;;16.70;99.90;;;;;;5029753;28;20038;-88
2023/09/24 05:41:23;;;;;;;2.67;0.75;;;16.70;99.90;;;;;;5030973;28;20105;-86
2023/09/24 05:43:48;;;;;;;3.28;1.05;;;16.70;99.90;;;;;;5030541;28;20108;-86
2023/09/24 05:46:14;;;;;;;1.13;0.47;;;16.70;99.90;;;;;;5030569;28;20513;-87
2023/09/24 05:48:41;;;;;;;1.23;0.50;;;16.70;99.90;;;;;;5030907;28;20033;-87
2023/09/24 05:51:07;;;;;;;1.70;0.40;;;16.80;99.90;;;;;;5029433;28;20025;-86
2023/09/24 05:53:33;;;;;;;0.20;0.20;;;16.80;99.90;;;;;;5030602;28;20033;-87
2023/09/24 05:56:00;;;;;;;2.25;0.30;;;16.80;99.90;;;;;;5029929;28;20037;-87
2023/09/24 05:58:26;;;;;;;1.52;0.30;;;16.80;99.90;;;;;;5030089;28;20037;-89
2023/09/24 06:00:55;;;;;;;2.42;0.40;;;16.80;99.90;;;;;;5028147;28;20079;-87
2023/09/24 06:03:21;;;;;;;0.77;0.30;;;16.70;99.90;;;;;;5028879;28;20029;-88
2023/09/24 06:05:47;;;;;;;0.60;0.28;;;16.70;99.90;;;;;;5028703;28;20124;-87
2023/09/24 06:08:13;;;;;;;3.90;0.75;;;16.60;99.90;;;;;;5030756;28;20065;-86
2023/09/24 06:10:43;;;;;;;0.95;0.20;;;16.70;99.90;;;;;;5030374;28;20021;-86
2023/09/24 06:13:10;;;;;;;0.55;0.30;;;16.70;99.90;;;;;;5045404;28;20029;-86
2023/09/24 06:15:36;;;;;;;5.30;0.30;;;16.70;99.90;;;;;;5030376;28;20057;-86
2023/09/24 06:18:02;;;;;;;0.60;0.35;;;16.60;99.90;;;;;;5029168;28;20060;-87
2023/09/24 06:20:29;;;;;;;0.70;0.22;;;16.60;99.90;;;;;;5030175;28;20053;-88
2023/09/24 06:22:54;;;;;;;1.20;0.30;;;16.60;99.90;;;;;;5045722;28;20022;-89
2023/09/24 06:25:20;;;;;;;1.98;0.40;;;16.60;99.90;;;;;;5045498;28;20029;-88
2023/09/24 06:27:46;;;;;;;0.30;0.30;;;16.60;99.90;;;;;;5028904;28;20026;-85
2023/09/24 06:30:11;;;;;;;0.68;0.20;;;16.60;99.90;;;;;;5028563;28;20072;-86
2023/09/24 06:32:38;;;;;;;3.28;0.50;;;16.50;99.90;;;;;;5045365;28;20467;-86
2023/09/24 06:35:04;;;;;;;0.80;0.30;;;16.50;99.90;;;;;;5029800;28;20049;-89
2023/09/24 06:37:30;;;;;;;2.75;0.70;;;16.50;99.90;;;;;;5030010;28;20029;-89
2023/09/24 06:39:56;;;;;;;3.50;0.60;;;16.50;99.90;;;;;;5028780;28;20033;-88
2023/09/24 06:42:22;;;;;;;4.10;0.90;;;16.60;99.90;;;;;;5028842;28;20029;-89
2023/09/24 06:44:49;;;;;;;15.35;0.88;;;16.60;99.90;;;;;;5045414;28;20083;-86
2023/09/24 06:47:14;;;;;;;2.95;0.60;;;16.50;99.90;;;;;;5029635;28;20095;-87
2023/09/24 06:49:40;;;;;;;2.92;0.60;;;16.50;99.90;;;;;;5030126;28;20425;-88
2023/09/24 06:52:06;;;;;;;4.13;1.15;;;16.50;99.90;;;;;;5046157;28;20029;-86
2023/09/24 06:54:35;;;;;;;5.72;1.05;;;16.50;99.90;;;;;;5028644;28;20533;-89
2023/09/24 06:57:01;;;;;;;9.35;1.35;;;16.40;99.90;;;;;;5028606;28;20030;-86
2023/09/24 06:59:26;;;;;;;1.98;0.70;;;16.50;99.90;;;;;;5029858;28;20037;-87
2023/09/24 07:01:53;;;;;;;2.78;0.50;;;16.50;99.90;;;;;;5044884;28;20049;-88
2023/09/24 07:04:19;;;;;;;1.65;0.45;;;16.50;99.90;;;;;;5028533;28;20494;-89
2023/09/24 07:06:45;;;;;;;4.63;0.57;;;16.50;99.90;;;;;;5029343;28;20035;-87
2023/09/24 07:09:10;;;;;;;1.73;0.30;;;16.60;99.90;;;;;;5028495;28;20144;-85
2023/09/24 07:11:38;;;;;;;3.80;0.30;;;16.70;99.90;;;;;;5031627;28;20029;-86
2023/09/24 07:14:07;;;;;;;1.73;0.40;;;16.70;99.90;;;;;;5033614;28;20108;-88
2023/09/24 07:16:34;;;;;;;0.85;0.50;;;16.80;99.90;;;;;;5032242;28;20140;-89
2023/09/24 07:19:00;;;;;;;2.25;0.40;;;16.80;99.90;;;;;;5033185;28;20045;-87
2023/09/24 07:21:28;;;;;;;5.78;0.40;;;16.90;99.90;;;;;;5048995;28;20402;-87
2023/09/24 07:23:55;;;;;;;0.57;0.30;;;16.90;99.90;;;;;;5032780;28;20124;-86
2023/09/24 07:26:22;;;;;;;0.93;0.40;;;16.90;99.90;;;;;;5031681;28;20410;-89
2023/09/24 07:28:49;;;;;;;3.55;0.30;;;16.90;99.90;;;;;;5033145;28;20029;-88
2023/09/24 07:31:21;;;;;;;2.28;0.32;;;16.90;99.90;;;;;;5033005;28;20580;-88
2023/09/24 07:33:51;;;;;;;0.68;0.30;;;16.90;99.90;;;;;;5032925;28;20387;-86
2023/09/24 07:36:18;;;;;;;1.08;0.30;;;16.90;99.90;;;;;;5031981;28;20048;-88
2023/09/24 07:38:44;;;;;;;1.27;0.45;;;17.00;99.90;;;;;;5032960;28;20049;-86
2023/09/24 07:41:10;;;;;;;3.53;1.17;;;17.00;99.90;;;;;;5032660;28;20022;-87
2023/09/24 07:43:44;;;;;;;2.78;0.55;;;17.00;99.90;;;;;;5031132;28;20045;-86
2023/09/24 07:46:17;;;;;;;1.27;0.30;;;17.20;99.90;;;;;;5032662;28;20067;-86
2023/09/24 07:48:44;;;;;;;1.65;0.30;;;17.40;99.90;;;;;;5032302;28;20549;-87
2023/09/24 07:51:11;;;;;;;3.50;0.43;;;17.50;99.90;;;;;;5032001;28;20045;-85
2023/09/24 07:53:37;;;;;;;2.08;0.30;;;17.60;99.90;;;;;;5031792;28;20025;-85
2023/09/24 07:56:08;;;;;;;1.80;0.80;;;17.60;99.90;;;;;;5030599;28;20030;-87
2023/09/24 07:58:34;;;;;;;1.80;0.38;;;17.70;99.90;;;;;;5030523;28;20419;-87
2023/09/24 08:01:08;;;;;;;0.63;0.50;;;17.70;99.90;;;;;;5030138;28;20076;-83
2023/09/24 08:03:35;;;;;;;1.40;0.30;;;17.70;99.90;;;;;;5031777;28;20032;-86
2023/09/24 08:06:02;;;;;;;5.25;0.40;;;17.80;99.90;;;;;;5032035;28;20029;-87
2023/09/24 08:08:28;;;;;;;0.77;0.35;;;17.80;99.90;;;;;;5032273;28;20409;-87
2023/09/24 08:10:54;;;;;;;1.70;0.40;;;17.70;99.90;;;;;;5032139;28;20049;-86
2023/09/24 08:13:21;;;;;;;5.53;0.70;;;17.70;99.90;;;;;;5047374;28;20061;-86
2023/09/24 08:15:47;;;;;;;1.23;0.50;;;17.70;99.90;;;;;;5031886;28;20045;-88
2023/09/24 08:18:13;;;;;;;2.00;0.50;;;17.70;99.90;;;;;;5031178;28;20068;-86
2023/09/24 08:20:42;;;;;;;4.47;1.50;;;17.60;99.90;;;;;;5030877;28;20033;-87
2023/09/24 08:23:08;;;;;;;7.30;1.25;;;17.50;99.90;;;;;;5029972;28;20056;-88
2023/09/24 08:25:35;;;;;;;4.22;1.10;;;17.50;99.90;;;;;;5031891;28;20096;-86
2023/09/24 08:28:02;;;;;;;1.73;0.80;;;17.50;99.90;;;;;;5030567;28;20029;-85
2023/09/24 08:30:30;;;;;;;6.00;0.68;;;17.50;99.90;;;;;;5031446;28;20034;-86
2023/09/24 08:32:56;;;;;;;1.75;0.60;;;17.50;99.90;;;;;;5030220;28;20409;-88
2023/09/24 08:35:22;;;;;;;5.90;1.00;;;17.60;99.90;;;;;;5031681;28;20102;-86
2023/09/24 08:37:51;;;;;;;3.10;0.60;;;17.70;99.90;;;;;;5031228;28;20033;-87
2023/09/24 08:40:17;;;;;;;1.40;0.80;;;17.80;99.90;;;;;;5031404;28;20039;-84
2023/09/24 08:42:49;;;;;;;1.83;0.63;;;17.90;99.90;;;;;;5031115;28;20021;-88
2023/09/24 08:45:19;;;;;;;1.75;0.60;;;18.00;99.90;;;;;;5031002;28;20031;-87
2023/09/24 08:47:46;;;;;;;1.00;0.40;;;18.10;99.90;;;;;;5031248;28;20029;-85
2023/09/24 08:50:13;;;;;;;1.42;0.63;;;18.30;99.90;;;;;;5030174;28;20108;-85
2023/09/24 08:52:41;;;;;;;2.33;0.50;;;18.40;99.90;;;;;;5031006;28;20037;-86
2023/09/24 08:55:08;;;;;;;2.10;0.40;;;18.60;99.90;;;;;;5030896;28;20052;-87
2023/09/24 08:57:34;;;;;;;2.67;0.60;;;18.70;99.90;;;;;;5029783;28;20402;-85
2023/09/24 09:00:01;;;;;;;3.90;1.05;;;18.80;99.90;;;;;;5030786;28;20029;-86
2023/09/24 09:02:27;;;;;;;3.28;1.00;;;18.90;99.90;;;;;;5031135;28;20033;-84
2023/09/24 09:04:55;;;;;;;1.02;0.40;;;19.00;99.90;;;;;;5029695;28;20383;-84
2023/09/24 09:07:21;;;;;;;3.92;0.60;;;19.10;99.90;;;;;;5030694;28;20022;-83
2023/09/24 09:09:55;;;;;;;1.60;0.43;;;19.10;99.90;;;;;;5030582;28;20022;-85
2023/09/24 09:12:25;;;;;;;0.93;0.60;;;19.10;99.90;;;;;;5030610;28;20603;-84
2023/09/24 09:14:51;;;;;;;2.50;0.65;;;19.00;99.90;;;;;;5029358;28;20091;-83
2023/09/24 09:17:17;;;;;;;2.03;0.50;;;18.90;99.90;;;;;;5030234;28;20279;-83
2023/09/24 09:19:55;;;;;;;2.25;0.60;;;18.80;99.90;;;;;;5028745;28;20069;-86
2023/09/24 09:22:23;;;;;;;1.52;0.75;;;18.70;99.90;;;;;;5030449;28;20097;-84
2023/09/24 09:25:00;;;;;;;1.23;0.60;;;18.70;99.90;;;;;;5030089;28;20052;-84
2023/09/24 09:27:37;;;;;;;2.55;0.90;;;18.60;99.90;;;;;;5030356;28;20022;-86
2023/09/24 09:30:15;;;;;;;3.17;0.80;;;18.50;99.90;;;;;;5045344;28;20056;-86
2023/09/24 09:32:44;;;;;;;7.18;0.82;;;18.40;99.90;;;;;;5046145;28;20025;-86
2023/09/24 09:35:11;;;;;;;1.38;0.50;;;18.30;99.90;;;;;;5029570;28;20025;-85
2023/09/24 09:37:41;;;;;;;8.35;0.82;;;18.20;99.90;;;;;;5028724;28;20053;-86
2023/09/24 09:40:09;;;;;;;5.20;0.80;;;18.20;99.90;;;;;;5030149;28;20142;-84
2023/09/24 09:42:37;;;;;;;1.83;0.60;;;18.20;99.90;;;;;;5030337;28;20021;-86
2023/09/24 09:45:08;;;;;;;1.05;0.40;;;18.20;99.90;;;;;;5029141;28;20115;-85
2023/09/24 09:47:44;;;;;;;4.90;0.50;;;18.20;99.90;;;;;;5030093;28;20033;-87
2023/09/24 09:50:11;;;;;;;;;;;18.20;99.90;;;;;;5028957;28;20560;-86
2023/09/24 09:52:44;;;;;;;1.23;0.45;;;18.20;99.90;;;;;;5030234;28;20289;-86
2023/09/24 09:55:09;;;;;;;1.23;0.20;;;18.20;99.90;;;;;;5028559;28;20063;-87
2023/09/24 09:57:35;;;;;;;1.02;0.35;;;18.20;99.90;;;;;;5045041;28;20033;-86
2023/09/24 10:00:09;;;;;;;2.15;0.35;;;18.20;99.90;;;;;;5030139;28;20025;-86
2023/09/24 10:02:35;;;;;;;4.38;0.40;;;18.20;99.90;;;;;;5028632;28;20044;-87
2023/09/24 10:05:01;;;;;;;4.43;0.30;;;18.20;99.90;;;;;;5030352;28;20029;-88
2023/09/24 10:07:27;;;;;;;0.63;0.30;;;18.20;99.90;;;;;;5029701;28;20033;-87
2023/09/24 10:09:53;;;;;;;1.75;0.40;;;18.30;99.90;;;;;;5029858;28;20032;-89
2023/09/24 10:12:36;;;;;;;2.28;0.35;;;18.30;99.90;;;;;;5045315;28;20397;-87
2023/09/24 10:15:27;;;;;;;1.98;0.50;;;18.40;99.90;;;;;;5029515;28;20033;-86
2023/09/24 10:18:08;;;;;;;1.40;0.40;;;18.60;99.90;;;;;;5029162;28;20029;-87
2023/09/24 10:20:49;;;;;;;1.10;0.40;;;19.10;99.90;;;;;;5029505;28;20116;-83
2023/09/24 10:23:29;;;;;;;1.30;0.30;;;19.70;99.90;;;;;;5029147;28;20026;-82
2023/09/24 10:26:00;;;;;;;0.85;0.38;;;20.20;99.90;;;;;;5028076;28;20052;-82
2023/09/24 10:28:51;;;;;;;2.53;0.40;;;20.50;99.90;;;;;;5029401;28;20036;-81
2023/09/24 10:31:21;;;;;;;0.85;0.30;;;20.60;99.90;;;;;;5028991;28;20020;-81
2023/09/24 10:34:03;;;;;;;1.00;0.40;;;20.70;99.90;;;;;;5029164;28;20033;-82
2023/09/24 10:36:35;;;;;;;1.40;0.30;;;20.90;99.90;;;;;;5044275;28;20034;-81
2023/09/24 10:39:08;;;;;;;8.18;0.30;;;21.10;99.90;;;;;;5027372;28;20041;-83
2023/09/24 10:41:35;;;;;;;1.35;0.40;;;21.20;99.90;;;;;;5027535;28;20056;-81
2023/09/24 10:44:23;;;;;;;3.22;0.70;;;21.20;99.90;;;;;;5027352;28;20030;-80
2023/09/24 10:46:49;;;;;;;2.80;0.20;;;21.20;99.90;;;;;;5031751;28;20029;-81
2023/09/24 10:49:22;;;;;;;1.88;0.68;;;21.00;99.90;;;;;;5033170;28;20390;-84
2023/09/24 10:51:48;;;;;;;1.85;0.30;;;20.60;99.90;;;;;;5048297;28;20029;-82
2023/09/24 10:54:17;;;;;;;1.10;0.30;;;20.50;99.90;;;;;;5032850;28;20083;-82
2023/09/24 10:56:47;;;;;;;0.82;0.22;;;20.40;99.90;;;;;;5032769;28;20022;-82
2023/09/24 10:59:14;;;;;;;0.43;0.20;;;20.40;99.90;;;;;;5032528;28;20038;-80
2023/09/24 11:01:40;;;;;;;3.25;0.30;;;20.30;99.90;;;;;;5032430;28;20030;-82
2023/09/24 11:04:08;;;;;;;0.60;0.30;;;20.20;99.90;;;;;;5031441;28;20021;-83
2023/09/24 11:06:35;;;;;;;3.60;0.30;;;20.20;99.90;;;;;;5031362;28;20026;-82
2023/09/24 11:09:18;;;;;;;1.00;0.32;;;20.10;99.90;;;;;;5031297;28;20443;-83
2023/09/24 11:11:44;;;;;;;1.85;0.38;;;19.80;99.90;;;;;;5032441;28;20340;-81
2023/09/24 11:14:23;;;;;;;0.77;0.30;;;19.80;99.90;;;;;;5032634;28;20522;-81
2023/09/24 11:16:53;;;;;;;2.05;0.30;;;19.80;99.90;;;;;;5032468;28;20061;-83
2023/09/24 11:19:44;;;;;;;0.88;0.25;;;19.70;99.90;;;;;;5032464;28;20029;-82
2023/09/24 11:22:21;;;;;;;2.00;0.35;;;19.70;99.90;;;;;;5030905;28;20025;-84
2023/09/24 11:25:05;;;;;;;5.07;0.30;;;19.60;99.90;;;;;;5032792;28;20576;-82
2023/09/24 11:27:32;;;;;;;2.20;0.40;;;19.80;99.90;;;;;;5031208;28;20159;-82
2023/09/24 11:30:03;;;;;;;3.45;0.47;;;20.00;99.90;;;;;;5032266;28;20025;-81
2023/09/24 11:32:29;;;;;;;2.75;0.57;;;20.10;99.90;;;;;;5031836;28;20568;-81
2023/09/24 11:35:09;;;;;;;3.88;0.32;;;20.30;99.90;;;;;;5031045;28;20029;-84
2023/09/24 11:38:04;;;;;;;2.53;0.40;;;20.40;99.90;;;;;;5031806;28;20083;-81
2023/09/24 11:40:34;;;;;;;3.13;0.38;;;20.40;99.90;;;;;;5023146;28;20502;-79
2023/09/24 11:43:00;;;;;;;2.30;0.38;;;20.50;99.90;;;;;;5031769;28;20045;-81
2023/09/24 11:45:48;;;;;;;8.30;0.77;;;20.60;99.90;;;;;;5032137;28;20025;-80
2023/09/24 11:48:28;;;;;;;1.00;0.30;;;20.70;99.90;;;;;;5031841;28;20032;-82
2023/09/24 11:51:03;;;;;;;1.73;0.38;;;20.60;99.90;;;;;;5031630;28;20029;-82
2023/09/24 11:53:29;;;;;;;5.38;0.40;;;20.50;99.90;;;;;;5031905;28;20025;-81
2023/09/24 11:55:59;;;;;;;5.63;1.23;;;20.60;99.90;;;;;;5029630;28;20034;-82
2023/09/24 11:58:28;;;;;;;0.70;0.40;;;20.40;99.90;;;;;;5030230;28;20029;-84
2023/09/24 12:00:56;;;;;;;3.67;0.30;;;20.40;99.90;;;;;;5030172;28;20084;-82
2023/09/24 12:03:22;;;;;;;1.75;0.40;;;20.30;99.90;;;;;;5030607;28;20068;-81
2023/09/24 12:05:49;;;;;;;3.38;0.40;;;20.10;99.90;;;;;;5031438;28;20025;-83
2023/09/24 12:08:15;;;;;;;5.85;0.32;;;20.10;99.90;;;;;;5030107;28;20441;-82
2023/09/24 12:10:46;;;;;;;0.85;0.30;;;20.00;99.90;;;;;;5031640;28;20030;-82
2023/09/24 12:13:13;;;;;;;1.02;0.30;;;20.00;99.90;;;;;;5030027;28;20026;-83
2023/09/24 12:15:39;;;;;;;2.65;0.28;;;20.10;99.90;;;;;;5031111;28;20134;-83
2023/09/24 12:18:06;;;;;;;0.75;0.20;;;20.20;99.90;;;;;;5031352;28;20033;-81
2023/09/24 12:20:33;;;;;;;1.58;0.28;;;20.30;99.90;;;;;;5029613;28;20044;-81
2023/09/24 12:23:01;;;;;;;2.90;0.40;;;20.20;99.90;;;;;;5029892;28;20449;-83
2023/09/24 12:25:28;;;;;;;0.93;0.20;;;20.20;99.90;;;;;;5029769;28;20455;-82
2023/09/24 12:27:53;;;;;;;2.17;0.40;;;20.20;99.90;;;;;;5029756;28;20056;-83
2023/09/24 12:30:19;;;;;;;0.88;0.20;;;20.10;99.90;;;;;;5030912;28;20060;-83
2023/09/24 12:32:45;;;;;;;2.25;0.55;;;20.00;99.90;;;;;;5030903;28;20045;-82
2023/09/24 12:35:12;;;;;;;2.22;0.40;;;19.90;99.90;;;;;;5030120;28;20025;-84
2023/09/24 12:37:39;;;;;;;1.27;0.30;;;19.90;99.90;;;;;;5029780;28;20033;-82
2023/09/24 12:40:09;;;;;;;2.95;0.50;;;20.00;99.90;;;;;;5030720;28;20025;-81
2023/09/24 12:42:36;;;;;;;2.38;0.57;;;20.00;99.90;;;;;;5045997;28;20079;-82
2023/09/24 12:45:03;;;;;;;4.70;0.40;;;20.10;99.90;;;;;;5030393;28;20029;-82
2023/09/24 12:47:32;;;;;;;2.53;0.30;;;20.10;99.90;;;;;;5029334;28;20053;-84
2023/09/24 12:50:06;;;;;;;1.98;0.40;;;20.00;99.90;;;;;;5029517;28;20067;-83